EGMD/LYX METAR and TAF weather

Enter ICAO airport designator
Station Type Date Time Source
EGMD METAR 2022/07/03 14:20 UTC NOAA

EGMD 031420Z 23020KT 9999 FEW020 18/13 Q1020


Station Type Date Time Source
EGMD Decoded METAR 2022/07/03 14:20 UTC NOAA

Lydd Airport , United Kingdom (EGMD) 50-57N 000-56E
Jul 03, 2022 - 10:20 AM EDT / 2022.07.03 1420 UTC
Wind: from the SW (230 degrees) at 23 MPH (20 KT):0
Visibility: greater than 7 mile(s):0
Sky conditions: mostly clear
Temperature: 64 F (18 C)
Dew Point: 55 F (13 C)
Relative Humidity: 72%
Pressure (altimeter): 30.12 in. Hg (1020 hPa)
ob: EGMD 031420Z 23020KT 9999 FEW020 18/13 Q1020
cycle: 14

Station Type Date Time Source
EGMD TAF UTC NOAA

Error!

Example: see airport list